createdAt,value
2022-10-01T00:00:58.450Z,-65
2022-10-01T00:02:04.717Z,-64
2022-10-01T00:03:10.989Z,-65
2022-10-01T00:04:17.266Z,-68
2022-10-01T00:05:23.533Z,-65
2022-10-01T00:06:29.804Z,-67
2022-10-01T00:07:36.082Z,-64
2022-10-01T00:08:42.350Z,-65
2022-10-01T00:09:48.637Z,-65
2022-10-01T00:10:53.932Z,-65
2022-10-01T00:12:00.186Z,-65
2022-10-01T00:13:06.456Z,-65
2022-10-01T00:14:12.735Z,-64
2022-10-01T00:15:19.006Z,-65
2022-10-01T00:16:25.268Z,-65
2022-10-01T00:17:31.544Z,-65
2022-10-01T00:18:36.844Z,-65
2022-10-01T00:19:42.127Z,-65
2022-10-01T00:20:48.402Z,-65
2022-10-01T00:21:54.679Z,-64
2022-10-01T00:22:59.975Z,-64
2022-10-01T00:24:05.267Z,-65
2022-10-01T00:25:11.532Z,-65
2022-10-01T00:26:17.836Z,-63
2022-10-01T00:27:24.076Z,-63
2022-10-01T00:28:30.370Z,-65
2022-10-01T00:29:36.620Z,-65
2022-10-01T00:30:42.897Z,-64
2022-10-01T00:31:49.165Z,-65
2022-10-01T00:32:55.438Z,-61
2022-10-01T00:34:01.709Z,-64
2022-10-01T00:35:07.981Z,-62
2022-10-01T00:36:14.280Z,-62
2022-10-01T00:37:20.524Z,-64
2022-10-01T00:38:25.821Z,-65
2022-10-01T00:39:32.089Z,-63
2022-10-01T00:40:38.356Z,-64
2022-10-01T00:41:44.630Z,-62
2022-10-01T00:42:50.902Z,-64
2022-10-01T00:43:57.174Z,-64
2022-10-01T00:45:03.443Z,-64
2022-10-01T00:46:08.747Z,-65
2022-10-01T00:47:14.033Z,-63
2022-10-01T00:48:19.332Z,-64
2022-10-01T00:49:24.623Z,-64
2022-10-01T00:50:30.896Z,-64
2022-10-01T00:51:37.170Z,-63
2022-10-01T00:52:43.442Z,-63
2022-10-01T00:53:49.734Z,-64
2022-10-01T00:54:55.981Z,-64
2022-10-01T00:56:02.251Z,-65
2022-10-01T00:57:08.518Z,-63
2022-10-01T00:58:14.803Z,-62
2022-10-01T00:59:21.068Z,-64
2022-10-01T01:00:27.345Z,-65
2022-10-01T01:01:33.617Z,-64
2022-10-01T01:02:39.900Z,-63
2022-10-01T01:03:45.180Z,-63
2022-10-01T01:04:51.441Z,-64
2022-10-01T01:05:57.717Z,-64
2022-10-01T01:07:03.988Z,-63
2022-10-01T01:08:10.270Z,-64
2022-10-01T01:09:16.557Z,-64
2022-10-01T01:10:22.801Z,-64
2022-10-01T01:11:28.106Z,-63
2022-10-01T01:12:33.394Z,-64
2022-10-01T01:13:38.686Z,-64
2022-10-01T01:14:43.992Z,-62
2022-10-01T01:15:50.250Z,-62
2022-10-01T01:16:56.528Z,-65
2022-10-01T01:18:02.791Z,-62
2022-10-01T01:19:09.078Z,-63
2022-10-01T01:20:15.334Z,-63
2022-10-01T01:21:21.622Z,-63
2022-10-01T01:22:27.884Z,-63
2022-10-01T01:23:34.153Z,-64
2022-10-01T01:24:40.430Z,-63
2022-10-01T01:25:46.694Z,-63
2022-10-01T01:26:52.975Z,-64
2022-10-01T01:27:59.241Z,-64
2022-10-01T01:29:04.528Z,-63
2022-10-01T01:30:10.799Z,-64
2022-10-01T01:31:17.073Z,-64
2022-10-01T01:32:23.353Z,-64
2022-10-01T01:33:29.621Z,-65
2022-10-01T01:34:35.891Z,-63
2022-10-01T01:35:42.178Z,-63
2022-10-01T01:36:47.466Z,-65
2022-10-01T01:37:52.762Z,-64
2022-10-01T01:38:58.051Z,-65
2022-10-01T01:40:03.336Z,-63
2022-10-01T01:41:09.610Z,-64
2022-10-01T01:42:15.887Z,-63
2022-10-01T01:43:22.149Z,-63
2022-10-01T01:44:27.448Z,-63
2022-10-01T01:45:33.727Z,-63
2022-10-01T01:46:39.990Z,-64
2022-10-01T01:47:46.260Z,-65
2022-10-01T01:48:52.537Z,-64
2022-10-01T01:49:58.803Z,-64
2022-10-01T01:51:05.079Z,-65
2022-10-01T01:52:11.358Z,-63
2022-10-01T01:53:17.621Z,-65
2022-10-01T01:54:23.894Z,-64
2022-10-01T01:55:30.169Z,-63
2022-10-01T01:56:36.440Z,-65
2022-10-01T01:57:42.716Z,-63
2022-10-01T01:58:47.998Z,-63
2022-10-01T01:59:54.278Z,-64
2022-10-01T02:01:00.547Z,-64
2022-10-01T02:02:05.847Z,-63
2022-10-01T02:03:11.124Z,-64
2022-10-01T02:04:16.425Z,-64
2022-10-01T02:05:21.712Z,-64
2022-10-01T02:06:27.990Z,-62
2022-10-01T02:07:34.270Z,-64
2022-10-01T02:08:40.533Z,-63
2022-10-01T02:09:46.803Z,-62
2022-10-01T02:10:53.074Z,-65
2022-10-01T02:11:59.354Z,-65
2022-10-01T02:13:05.621Z,-63
2022-10-01T02:14:11.892Z,-64
2022-10-01T02:15:18.163Z,-63
2022-10-01T02:16:24.456Z,-63
2022-10-01T02:17:30.714Z,-63
2022-10-01T02:18:36.980Z,-63
2022-10-01T02:19:42.269Z,-63
2022-10-01T02:20:48.558Z,-63
2022-10-01T02:21:54.815Z,-63
2022-10-01T02:23:01.090Z,-62
2022-10-01T02:24:07.360Z,-64
2022-10-01T02:25:13.627Z,-64
2022-10-01T02:26:19.902Z,-64
2022-10-01T02:27:26.182Z,-63
2022-10-01T02:28:32.449Z,-63
2022-10-01T02:29:38.717Z,-65
2022-10-01T02:30:44.991Z,-64
2022-10-01T02:31:51.262Z,-63
2022-10-01T02:32:57.540Z,-62
2022-10-01T02:34:02.819Z,-62
2022-10-01T02:35:09.091Z,-64
2022-10-01T02:36:15.364Z,-62
2022-10-01T02:37:21.643Z,-64
2022-10-01T02:38:27.916Z,-64
2022-10-01T02:39:34.180Z,-62
2022-10-01T02:40:40.451Z,-64
2022-10-01T02:41:46.728Z,-62
2022-10-01T02:42:53.016Z,-65
2022-10-01T02:43:59.262Z,-64
2022-10-01T02:45:05.553Z,-62
2022-10-01T02:46:11.810Z,-63
2022-10-01T02:47:18.090Z,-64
2022-10-01T02:48:23.378Z,-67
2022-10-01T02:49:29.660Z,-63
2022-10-01T02:50:35.921Z,-64
2022-10-01T02:51:42.195Z,-63
2022-10-01T02:52:48.463Z,-63
2022-10-01T02:53:54.734Z,-65
2022-10-01T02:55:01.028Z,-63
2022-10-01T02:56:07.278Z,-63
2022-10-01T02:57:13.568Z,-63
2022-10-01T02:58:19.823Z,-62
2022-10-01T02:59:26.095Z,-62
2022-10-01T03:00:32.369Z,-62
2022-10-01T03:01:38.647Z,-64
2022-10-01T03:02:43.929Z,-64
2022-10-01T03:03:50.201Z,-63
2022-10-01T03:04:56.473Z,-62
2022-10-01T03:06:02.750Z,-62
2022-10-01T03:07:09.026Z,-62
2022-10-01T03:08:15.289Z,-63
2022-10-01T03:09:21.577Z,-63
2022-10-01T03:10:27.836Z,-62
2022-10-01T03:11:34.115Z,-63
2022-10-01T03:12:40.395Z,-62
2022-10-01T03:13:46.650Z,-63
2022-10-01T03:14:52.930Z,-64
2022-10-01T03:15:59.200Z,-63
2022-10-01T03:17:04.487Z,-62
2022-10-01T03:18:10.756Z,-63
2022-10-01T03:19:17.028Z,-63
2022-10-01T03:20:22.329Z,-63
2022-10-01T03:21:27.618Z,-63
2022-10-01T03:22:33.884Z,-63
2022-10-01T03:23:40.157Z,-63
2022-10-01T03:24:46.430Z,-63
2022-10-01T03:25:51.738Z,-64
2022-10-01T03:26:57.025Z,-64
2022-10-01T03:28:03.305Z,-63
2022-10-01T03:29:09.561Z,-62
2022-10-01T03:30:15.838Z,-64
2022-10-01T03:31:22.110Z,-63
2022-10-01T03:32:28.383Z,-64
2022-10-01T03:33:34.653Z,-62
2022-10-01T03:34:40.918Z,-65
2022-10-01T03:35:47.206Z,-63
2022-10-01T03:36:53.473Z,-62
2022-10-01T03:37:59.736Z,-62
2022-10-01T03:39:06.012Z,-64
2022-10-01T03:40:12.282Z,-62
2022-10-01T03:41:17.574Z,-64
2022-10-01T03:42:23.834Z,-62
2022-10-01T03:43:30.111Z,-64
2022-10-01T03:44:36.384Z,-64
2022-10-01T03:45:42.659Z,-63
2022-10-01T03:46:48.931Z,-64
2022-10-01T03:47:55.201Z,-62
2022-10-01T03:49:01.475Z,-62
2022-10-01T03:50:07.743Z,-62
2022-10-01T03:51:14.017Z,-62
2022-10-01T03:52:20.286Z,-63
2022-10-01T03:53:26.561Z,-64
2022-10-01T03:54:32.835Z,-63
2022-10-01T03:55:38.130Z,-62
2022-10-01T03:56:44.394Z,-62
2022-10-01T03:57:50.676Z,-64
2022-10-01T03:58:56.938Z,-64
2022-10-01T04:00:03.209Z,-62
2022-10-01T04:01:09.485Z,-62
2022-10-01T04:02:15.754Z,-62
2022-10-01T04:03:22.026Z,-62
2022-10-01T04:04:28.304Z,-62
2022-10-01T04:05:34.575Z,-61
2022-10-01T04:06:40.854Z,-62
2022-10-01T04:07:47.114Z,-62
2022-10-01T04:08:53.385Z,-62
2022-10-01T04:09:58.691Z,-63
2022-10-01T04:11:03.982Z,-62
2022-10-01T04:12:09.288Z,-62
2022-10-01T04:13:14.561Z,-62
2022-10-01T04:14:20.833Z,-62
2022-10-01T04:15:27.113Z,-62
2022-10-01T04:16:33.377Z,-62
2022-10-01T04:17:39.652Z,-61
2022-10-01T04:18:45.921Z,-62
2022-10-01T04:19:52.195Z,-62
2022-10-01T04:20:58.473Z,-62
2022-10-01T04:22:04.744Z,-60
2022-10-01T04:23:11.018Z,-62
2022-10-01T04:24:17.283Z,-62
2022-10-01T04:25:23.562Z,-62
2022-10-01T04:26:29.831Z,-62
2022-10-01T04:27:35.112Z,-62
2022-10-01T04:28:41.398Z,-63
2022-10-01T04:29:47.659Z,-62
2022-10-01T04:30:53.937Z,-61
2022-10-01T04:32:00.208Z,-62
2022-10-01T04:33:06.485Z,-62
2022-10-01T04:34:12.748Z,-62
2022-10-01T04:35:18.046Z,-63
2022-10-01T04:36:23.335Z,-62
2022-10-01T04:37:29.605Z,-62
2022-10-01T04:38:35.882Z,-62
2022-10-01T04:39:42.148Z,-62
2022-10-01T04:40:48.421Z,-59
2022-10-01T04:41:54.696Z,-62
2022-10-01T04:43:00.973Z,-62
2022-10-01T04:44:07.235Z,-62
2022-10-01T04:45:13.517Z,-61
2022-10-01T04:46:19.784Z,-63
2022-10-01T04:47:26.056Z,-62
2022-10-01T04:48:32.328Z,-62
2022-10-01T04:49:38.608Z,-62
2022-10-01T04:50:43.889Z,-62
2022-10-01T04:51:50.164Z,-62
2022-10-01T04:52:56.428Z,-59
2022-10-01T04:54:02.701Z,-62
2022-10-01T04:55:08.973Z,-61
2022-10-01T04:56:15.244Z,-62
2022-10-01T04:57:21.525Z,-61
2022-10-01T04:58:26.825Z,-62
2022-10-01T04:59:32.106Z,-62
2022-10-01T05:00:37.409Z,-62
2022-10-01T05:01:42.693Z,-61
2022-10-01T05:02:48.965Z,-61
2022-10-01T05:03:55.241Z,-62
2022-10-01T05:05:00.560Z,-62
2022-10-01T05:06:05.834Z,-61
2022-10-01T05:07:12.100Z,-62
2022-10-01T05:08:18.370Z,-62
2022-10-01T05:09:24.640Z,-62
2022-10-01T05:10:30.921Z,-62
2022-10-01T05:11:37.188Z,-61
2022-10-01T05:12:43.469Z,-62
2022-10-01T05:13:49.740Z,-62
2022-10-01T05:14:56.005Z,-62
2022-10-01T05:16:02.274Z,-62
2022-10-01T05:17:08.553Z,-62
2022-10-01T05:18:14.824Z,-61
2022-10-01T05:19:21.092Z,-61
2022-10-01T05:20:26.395Z,-61
2022-10-01T05:21:32.652Z,-61
2022-10-01T05:22:38.922Z,-60
2022-10-01T05:23:45.196Z,-61
2022-10-01T05:24:51.467Z,-61
2022-10-01T05:25:56.770Z,-60
2022-10-01T05:27:03.030Z,-61
2022-10-01T05:28:08.341Z,-61
2022-10-01T05:29:13.622Z,-60
2022-10-01T05:30:18.919Z,-60
2022-10-01T05:31:24.208Z,-62
2022-10-01T05:32:30.491Z,-61
2022-10-01T05:33:36.759Z,-60
2022-10-01T05:34:43.023Z,-60
2022-10-01T05:35:49.300Z,-59
2022-10-01T05:36:55.565Z,-60
2022-10-01T05:38:01.847Z,-61
2022-10-01T05:39:08.111Z,-60
2022-10-01T05:40:14.380Z,-60
2022-10-01T05:41:20.666Z,-58
2022-10-01T05:42:26.925Z,-62
2022-10-01T05:43:33.203Z,-62
2022-10-01T05:44:39.479Z,-61
2022-10-01T05:45:44.767Z,-61
2022-10-01T05:46:51.045Z,-61
2022-10-01T05:47:57.300Z,-60
2022-10-01T05:49:03.573Z,-60
2022-10-01T05:50:09.849Z,-64
2022-10-01T05:51:16.128Z,-61
2022-10-01T05:52:22.387Z,-61
2022-10-01T05:53:27.698Z,-61
2022-10-01T05:54:32.973Z,-61
2022-10-01T05:55:38.285Z,-60
2022-10-01T05:56:43.568Z,-61
2022-10-01T05:57:49.835Z,-61
2022-10-01T05:58:56.111Z,-59
2022-10-01T06:00:02.534Z,-61
2022-10-01T06:01:08.654Z,-60
2022-10-01T06:02:14.944Z,-61
2022-10-01T06:03:21.205Z,-60
2022-10-01T06:04:27.471Z,-60
2022-10-01T06:05:33.757Z,-59
2022-10-01T06:06:40.013Z,-61
2022-10-01T06:07:46.284Z,-61
2022-10-01T06:08:52.556Z,-61
2022-10-01T06:09:58.844Z,-61
2022-10-01T06:11:04.121Z,-61
2022-10-01T06:12:10.394Z,-64
2022-10-01T06:13:16.667Z,-61
2022-10-01T06:14:22.939Z,-60
2022-10-01T06:15:29.218Z,-61
2022-10-01T06:16:35.483Z,-62
2022-10-01T06:17:41.750Z,-61
2022-10-01T06:18:48.035Z,-62
2022-10-01T06:19:54.298Z,-61
2022-10-01T06:21:00.566Z,-60
2022-10-01T06:22:06.842Z,-60
2022-10-01T06:23:13.113Z,-60
2022-10-01T06:24:19.406Z,-60
2022-10-01T06:25:24.680Z,-60
2022-10-01T06:26:30.936Z,-62
2022-10-01T06:27:37.214Z,-61
2022-10-01T06:28:43.492Z,-61
2022-10-01T06:29:49.756Z,-59
2022-10-01T06:30:56.030Z,-60
2022-10-01T06:32:02.304Z,-61
2022-10-01T06:33:08.602Z,-62
2022-10-01T06:34:14.842Z,-59
2022-10-01T06:35:21.120Z,-60
2022-10-01T06:36:27.389Z,-61
2022-10-01T06:37:33.668Z,-60
2022-10-01T06:38:39.941Z,-59
2022-10-01T06:39:45.235Z,-62
2022-10-01T06:40:50.528Z,-60
2022-10-01T06:41:55.806Z,-59
2022-10-01T06:43:02.090Z,-60
2022-10-01T06:44:07.379Z,-60
2022-10-01T06:45:12.680Z,-59
2022-10-01T06:46:18.949Z,-60
2022-10-01T06:47:25.214Z,-61
2022-10-01T06:48:31.490Z,-60
2022-10-01T06:49:37.756Z,-59
2022-10-01T06:50:44.023Z,-59
2022-10-01T06:51:50.301Z,-60
2022-10-01T06:52:56.571Z,-59
2022-10-01T06:54:02.856Z,-59
2022-10-01T06:55:09.119Z,-59
2022-10-01T06:56:15.398Z,-59
2022-10-01T06:57:21.671Z,-59
2022-10-01T06:58:27.932Z,-59
2022-10-01T06:59:33.215Z,-60
2022-10-01T07:00:39.499Z,-60
2022-10-01T07:01:45.765Z,-59
2022-10-01T07:02:52.031Z,-59
2022-10-01T07:03:58.311Z,-59
2022-10-01T07:05:04.581Z,-59
2022-10-01T07:06:10.854Z,-60
2022-10-01T07:07:16.151Z,-59
2022-10-01T07:08:21.446Z,-60
2022-10-01T07:09:26.746Z,-59
2022-10-01T07:10:32.027Z,-60
2022-10-01T07:11:38.299Z,-59
2022-10-01T07:12:44.575Z,-59
2022-10-01T07:13:50.838Z,-58
2022-10-01T07:14:57.109Z,-59
2022-10-01T07:16:03.383Z,-59
2022-10-01T07:17:09.650Z,-59
2022-10-01T07:18:15.933Z,-59
2022-10-01T07:19:22.199Z,-58
2022-10-01T07:20:28.474Z,-60
2022-10-01T07:21:34.745Z,-57
2022-10-01T07:22:41.015Z,-58
2022-10-01T07:23:47.297Z,-59
2022-10-01T07:24:52.591Z,-56
2022-10-01T07:25:58.851Z,-60
2022-10-01T07:27:05.127Z,-59
2022-10-01T07:28:11.454Z,-59
2022-10-01T07:29:17.696Z,-57
2022-10-01T07:30:23.931Z,-59
2022-10-01T07:31:30.207Z,-59
2022-10-01T07:32:35.521Z,-59
2022-10-01T07:33:40.789Z,-59
2022-10-01T07:34:46.100Z,-53
2022-10-01T07:35:51.389Z,-58
2022-10-01T07:36:57.657Z,-58
2022-10-01T07:38:03.934Z,-59
2022-10-01T07:39:10.215Z,-58
2022-10-01T07:40:16.467Z,-57
2022-10-01T07:41:22.784Z,-57
2022-10-01T07:42:29.015Z,-56
2022-10-01T07:43:35.302Z,-56
2022-10-01T07:44:41.561Z,-57
2022-10-01T07:45:47.830Z,-56
2022-10-01T07:46:54.108Z,-57
2022-10-01T07:48:00.395Z,-56
2022-10-01T07:49:06.657Z,-57
2022-10-01T07:50:11.935Z,-57
2022-10-01T07:51:18.206Z,-56
2022-10-01T07:52:24.484Z,-58
2022-10-01T07:53:30.767Z,-57
2022-10-01T07:54:37.035Z,-56
2022-10-01T07:55:43.285Z,-57
2022-10-01T07:56:49.563Z,-56
2022-10-01T07:57:54.890Z,-57
2022-10-01T07:59:00.155Z,-56
2022-10-01T08:00:05.443Z,-57
2022-10-01T08:01:10.736Z,-57
2022-10-01T08:02:17.015Z,-56
2022-10-01T08:03:23.294Z,-57
2022-10-01T08:04:29.561Z,-57
2022-10-01T08:05:35.829Z,-57
2022-10-01T08:06:42.094Z,-57
2022-10-01T08:07:48.365Z,-56
2022-10-01T08:08:54.646Z,-56
2022-10-01T08:10:00.917Z,-54
2022-10-01T08:11:07.186Z,-56
2022-10-01T08:12:13.457Z,-56
2022-10-01T08:13:19.727Z,-56
2022-10-01T08:14:26.003Z,-55
2022-10-01T08:15:31.291Z,-57
2022-10-01T08:16:37.558Z,-54
2022-10-01T08:17:43.836Z,-56
2022-10-01T08:18:50.105Z,-56
2022-10-01T08:19:56.378Z,-55
2022-10-01T08:21:02.647Z,-56
2022-10-01T08:22:08.923Z,-56
2022-10-01T08:23:14.219Z,-54
2022-10-01T08:24:19.509Z,-54
2022-10-01T08:25:25.783Z,-56
2022-10-01T08:26:31.090Z,-56
2022-10-01T08:27:36.367Z,-56
2022-10-01T08:28:42.638Z,-56
2022-10-01T08:29:48.907Z,-56
2022-10-01T08:30:55.193Z,-56
2022-10-01T08:32:01.480Z,-56
2022-10-01T08:33:07.736Z,-55
2022-10-01T08:34:14.018Z,-56
2022-10-01T08:35:20.269Z,-57
2022-10-01T08:36:26.553Z,-56
2022-10-01T08:37:32.818Z,-56
2022-10-01T08:38:39.083Z,-55
2022-10-01T08:39:45.358Z,-55
2022-10-01T08:40:51.630Z,-55
2022-10-01T08:41:56.918Z,-55
2022-10-01T08:43:03.190Z,-55
2022-10-01T08:44:09.465Z,-59
2022-10-01T08:45:15.726Z,-53
2022-10-01T08:46:22.002Z,-56
2022-10-01T08:47:28.299Z,-54
2022-10-01T08:48:34.550Z,-54
2022-10-01T08:49:39.852Z,-56
2022-10-01T08:50:45.134Z,-56
2022-10-01T08:51:51.405Z,-55
2022-10-01T08:52:57.682Z,-56
2022-10-01T08:54:03.969Z,-55
2022-10-01T08:55:10.225Z,-56
2022-10-01T08:56:16.499Z,-56
2022-10-01T08:57:21.794Z,-54
2022-10-01T08:58:27.102Z,-56
2022-10-01T08:59:33.367Z,-56
2022-10-01T09:00:39.627Z,-56
2022-10-01T09:01:45.896Z,-55
2022-10-01T09:02:52.169Z,-56
2022-10-01T09:03:58.445Z,-54
2022-10-01T09:05:04.716Z,-54
2022-10-01T09:06:10.980Z,-56
2022-10-01T09:07:16.276Z,-55
2022-10-01T09:08:22.554Z,-55
2022-10-01T09:09:28.826Z,-56
2022-10-01T09:10:35.103Z,-55
2022-10-01T09:11:41.365Z,-54
2022-10-01T09:12:47.647Z,-54
2022-10-01T09:13:53.914Z,-56
2022-10-01T09:15:00.188Z,-55
2022-10-01T09:16:06.448Z,-54
2022-10-01T09:17:12.723Z,-55
2022-10-01T09:18:18.994Z,-54
2022-10-01T09:19:25.270Z,-56
2022-10-01T09:20:30.569Z,-56
2022-10-01T09:21:35.858Z,-56
2022-10-01T09:22:41.158Z,-55
2022-10-01T09:23:46.443Z,-56
2022-10-01T09:24:52.713Z,-56
2022-10-01T09:25:58.989Z,-56
2022-10-01T09:27:05.266Z,-56
2022-10-01T09:28:11.533Z,-54
2022-10-01T09:29:17.801Z,-55
2022-10-01T09:30:24.073Z,-55
2022-10-01T09:31:30.349Z,-56
2022-10-01T09:32:36.631Z,-56
2022-10-01T09:33:42.896Z,-56
2022-10-01T09:34:49.159Z,-54
2022-10-01T09:35:55.430Z,-56
2022-10-01T09:37:01.708Z,-55
2022-10-01T09:38:06.989Z,-55
2022-10-01T09:39:13.266Z,-56
2022-10-01T09:40:19.541Z,-55
2022-10-01T09:41:25.823Z,-54
2022-10-01T09:42:32.086Z,-54
2022-10-01T09:43:38.362Z,-56
2022-10-01T09:44:44.621Z,-56
2022-10-01T09:45:49.922Z,-56
2022-10-01T09:46:55.208Z,-54
2022-10-01T09:48:01.481Z,-56
2022-10-01T09:49:07.760Z,-55
2022-10-01T09:50:14.031Z,-56
2022-10-01T09:51:20.306Z,-56
2022-10-01T09:52:26.572Z,-55
2022-10-01T09:53:32.849Z,-56
2022-10-01T09:54:39.117Z,-56
2022-10-01T09:55:45.387Z,-54
2022-10-01T09:56:51.659Z,-55
2022-10-01T09:57:57.929Z,-56
2022-10-01T09:59:04.214Z,-55
2022-10-01T10:00:10.479Z,-55
2022-10-01T10:01:15.864Z,-56
2022-10-01T10:02:22.079Z,-56
2022-10-01T10:03:28.343Z,-56
2022-10-01T10:04:34.721Z,-56
2022-10-01T10:05:40.845Z,-56
2022-10-01T10:06:47.121Z,-56
2022-10-01T10:07:53.558Z,-55
2022-10-01T10:08:58.733Z,-56
2022-10-01T10:10:03.994Z,-55
2022-10-01T10:11:10.327Z,-56
2022-10-01T10:12:16.677Z,-56
2022-10-01T10:13:21.861Z,-53
2022-10-01T10:14:27.112Z,-56
2022-10-01T10:15:33.515Z,-55
2022-10-01T10:16:39.791Z,-55
2022-10-01T10:17:46.111Z,-56
2022-10-01T10:18:52.200Z,-55
2022-10-01T10:19:58.539Z,-55
2022-10-01T10:21:04.907Z,-56
2022-10-01T10:22:11.015Z,-54
2022-10-01T10:23:17.460Z,-55
2022-10-01T10:24:23.716Z,-56
2022-10-01T10:25:29.939Z,-56
2022-10-01T10:26:35.144Z,-55
2022-10-01T10:27:40.560Z,-56
2022-10-01T10:28:46.752Z,-56
2022-10-01T10:29:53.088Z,-56
2022-10-01T10:30:59.347Z,-55
2022-10-01T10:32:05.642Z,-55
2022-10-01T10:33:11.915Z,-56
2022-10-01T10:34:18.199Z,-56
2022-10-01T10:35:24.402Z,-55
2022-10-01T10:36:30.584Z,-56
2022-10-01T10:37:36.945Z,-56
2022-10-01T10:38:43.279Z,-55
2022-10-01T10:39:49.575Z,-55
2022-10-01T10:40:55.840Z,-55
2022-10-01T10:42:00.967Z,-54
2022-10-01T10:43:07.381Z,-55
2022-10-01T10:44:13.657Z,-56
2022-10-01T10:45:19.937Z,-56
2022-10-01T10:46:26.214Z,-55
2022-10-01T10:47:32.465Z,-56
2022-10-01T10:48:38.600Z,-56
2022-10-01T10:49:45.016Z,-56
2022-10-01T10:50:51.285Z,-56
2022-10-01T10:51:57.555Z,-56
2022-10-01T10:53:03.832Z,-56
2022-10-01T10:54:10.076Z,-56
2022-10-01T10:55:16.226Z,-54
2022-10-01T10:56:21.531Z,-55
2022-10-01T10:57:27.867Z,-53
2022-10-01T10:58:34.150Z,-56
2022-10-01T10:59:40.360Z,-55
2022-10-01T11:00:46.619Z,-55
2022-10-01T11:01:52.888Z,-55
2022-10-01T11:02:59.174Z,-54
2022-10-01T11:04:05.430Z,-55
2022-10-01T11:05:11.690Z,-56
2022-10-01T11:06:18.065Z,-54
2022-10-01T11:07:24.230Z,-53
2022-10-01T11:08:30.534Z,-56
2022-10-01T11:09:36.873Z,-54
2022-10-01T11:10:42.085Z,-52
2022-10-01T11:11:48.346Z,-54
2022-10-01T11:12:54.603Z,-55
2022-10-01T11:14:00.928Z,-55
2022-10-01T11:15:07.155Z,-55
2022-10-01T11:16:13.428Z,-56
2022-10-01T11:17:19.690Z,-53
2022-10-01T11:18:25.965Z,-54
2022-10-01T11:19:32.311Z,-55
2022-10-01T11:20:38.521Z,-54
2022-10-01T11:21:44.795Z,-54
2022-10-01T11:22:51.059Z,-55
2022-10-01T11:23:57.361Z,-55
2022-10-01T11:25:02.650Z,-55
2022-10-01T11:26:08.881Z,-54
2022-10-01T11:27:15.185Z,-54
2022-10-01T11:28:21.429Z,-56
2022-10-01T11:29:27.706Z,-56
2022-10-01T11:30:33.977Z,-54
2022-10-01T11:31:40.245Z,-55
2022-10-01T11:32:46.540Z,-56
2022-10-01T11:33:52.817Z,-54
2022-10-01T11:34:59.062Z,-53
2022-10-01T11:36:05.398Z,-55
2022-10-01T11:37:10.634Z,-55
2022-10-01T11:38:15.986Z,-53
2022-10-01T11:39:22.200Z,-53
2022-10-01T11:40:28.560Z,-54
2022-10-01T11:41:34.776Z,-56
2022-10-01T11:42:40.121Z,-55
2022-10-01T11:43:45.341Z,-54
2022-10-01T11:44:51.595Z,-55
2022-10-01T11:45:57.864Z,-54
2022-10-01T11:47:04.135Z,-54
2022-10-01T11:48:10.444Z,-55
2022-10-01T11:49:16.686Z,-53
2022-10-01T11:50:22.953Z,-55
2022-10-01T11:51:29.247Z,-54
2022-10-01T11:52:35.568Z,-56
2022-10-01T11:53:41.770Z,-53
2022-10-01T11:54:48.061Z,-54
2022-10-01T11:55:54.350Z,-55
2022-10-01T11:57:00.583Z,-53
2022-10-01T11:58:06.912Z,-54
2022-10-01T11:59:12.149Z,-53
2022-10-01T12:00:18.421Z,-52
2022-10-01T12:01:24.700Z,-53
2022-10-01T12:02:30.962Z,-53
2022-10-01T12:03:37.234Z,-53
2022-10-01T12:04:43.525Z,-53
2022-10-01T12:05:48.815Z,-53
2022-10-01T12:06:54.091Z,-53
2022-10-01T12:08:00.384Z,-53
2022-10-01T12:09:05.682Z,-53
2022-10-01T12:10:10.951Z,-53
2022-10-01T12:11:17.269Z,-53
2022-10-01T12:12:23.535Z,-53
2022-10-01T12:13:29.789Z,-53
2022-10-01T12:14:36.071Z,-52
2022-10-01T12:15:42.319Z,-53
2022-10-01T12:16:48.593Z,-53
2022-10-01T12:17:54.856Z,-53
2022-10-01T12:19:01.135Z,-53
2022-10-01T12:20:07.493Z,-56
2022-10-01T12:21:13.674Z,-53
2022-10-01T12:22:19.951Z,-53
2022-10-01T12:23:26.255Z,-53
2022-10-01T12:24:31.509Z,-50
2022-10-01T12:25:37.781Z,-53
2022-10-01T12:26:44.061Z,-51
2022-10-01T12:27:50.320Z,-53
2022-10-01T12:28:56.594Z,-52
2022-10-01T12:30:02.901Z,-53
2022-10-01T12:31:09.141Z,-52
2022-10-01T12:32:14.449Z,-53
2022-10-01T12:33:19.758Z,-53
2022-10-01T12:34:26.014Z,-53
2022-10-01T12:35:31.303Z,-53
2022-10-01T12:36:36.658Z,-51
2022-10-01T12:37:42.942Z,-53
2022-10-01T12:38:49.169Z,-52
2022-10-01T12:39:55.408Z,-55
2022-10-01T12:41:01.702Z,-53
2022-10-01T12:42:07.951Z,-52
2022-10-01T12:43:14.283Z,-53
2022-10-01T12:44:20.500Z,-52
2022-10-01T12:45:26.791Z,-50
2022-10-01T12:46:33.032Z,-52
2022-10-01T12:47:39.304Z,-51
2022-10-01T12:48:44.632Z,-52
2022-10-01T12:49:50.871Z,-50
2022-10-01T12:50:57.141Z,-51
2022-10-01T12:52:03.445Z,-53
2022-10-01T12:53:09.701Z,-53
2022-10-01T12:54:15.959Z,-53
2022-10-01T12:55:22.239Z,-52
2022-10-01T12:56:28.516Z,-53
2022-10-01T12:57:34.776Z,-52
2022-10-01T12:58:41.061Z,-53
2022-10-01T12:59:47.369Z,-51
2022-10-01T13:00:53.599Z,-52
2022-10-01T13:01:59.873Z,-51
2022-10-01T13:03:05.179Z,-52
2022-10-01T13:04:11.424Z,-52
2022-10-01T13:05:17.721Z,-50
2022-10-01T13:06:23.967Z,-52
2022-10-01T13:07:30.239Z,-52
2022-10-01T13:08:36.516Z,-52
2022-10-01T13:09:42.780Z,-52
2022-10-01T13:10:49.091Z,-51
2022-10-01T13:11:55.328Z,-51
2022-10-01T13:13:01.605Z,-52
2022-10-01T13:14:07.878Z,-52
2022-10-01T13:15:14.157Z,-51
2022-10-01T13:16:20.422Z,-51
2022-10-01T13:17:25.703Z,-51
2022-10-01T13:18:31.979Z,-50
2022-10-01T13:19:38.255Z,-51
2022-10-01T13:20:44.528Z,-52
2022-10-01T13:21:50.795Z,-52
2022-10-01T13:22:57.081Z,-51
2022-10-01T13:24:03.411Z,-50
2022-10-01T13:25:09.611Z,-51
2022-10-01T13:26:15.894Z,-50
2022-10-01T13:27:22.185Z,-50
2022-10-01T13:28:27.500Z,-50
2022-10-01T13:29:32.774Z,-51
2022-10-01T13:30:39.042Z,-52
2022-10-01T13:31:45.291Z,-50
2022-10-01T13:32:51.601Z,-51
2022-10-01T13:33:57.855Z,-52
2022-10-01T13:35:04.116Z,-50
2022-10-01T13:36:10.369Z,-53
2022-10-01T13:37:16.776Z,-50
2022-10-01T13:38:22.919Z,-51
2022-10-01T13:39:29.233Z,-50
2022-10-01T13:40:35.456Z,-51
2022-10-01T13:41:41.758Z,-51
2022-10-01T13:42:48.032Z,-50
2022-10-01T13:43:53.290Z,-50
2022-10-01T13:44:59.597Z,-50
2022-10-01T13:46:05.839Z,-50
2022-10-01T13:47:12.117Z,-50
2022-10-01T13:48:18.395Z,-50
2022-10-01T13:49:24.680Z,-50
2022-10-01T13:50:30.928Z,-50
2022-10-01T13:51:36.236Z,-50
2022-10-01T13:52:41.525Z,-50
2022-10-01T13:53:47.787Z,-49
2022-10-01T13:54:53.103Z,-50
2022-10-01T13:55:59.357Z,-50
2022-10-01T13:57:04.649Z,-50
2022-10-01T13:58:09.947Z,-52
2022-10-01T13:59:16.233Z,-50
2022-10-01T14:00:22.485Z,-48
2022-10-01T14:01:28.823Z,-49
2022-10-01T14:02:35.029Z,-50
2022-10-01T14:03:41.312Z,-50
2022-10-01T14:04:47.652Z,-50
2022-10-01T14:05:53.906Z,-49
2022-10-01T14:07:00.125Z,-50
2022-10-01T14:08:06.394Z,-49
2022-10-01T14:09:12.670Z,-50
2022-10-01T14:10:18.968Z,-50
2022-10-01T14:11:25.306Z,-49
2022-10-01T14:12:30.498Z,-50
2022-10-01T14:13:36.823Z,-50
2022-10-01T14:14:43.062Z,-50
2022-10-01T14:15:49.411Z,-49
2022-10-01T14:16:55.581Z,-50
2022-10-01T14:18:01.870Z,-50
2022-10-01T14:19:08.145Z,-50
2022-10-01T14:20:14.399Z,-49
2022-10-01T14:21:20.672Z,-48
2022-10-01T14:22:27.026Z,-50
2022-10-01T14:23:33.290Z,-48
2022-10-01T14:24:39.492Z,-48
2022-10-01T14:25:45.811Z,-49
2022-10-01T14:26:51.140Z,-48
2022-10-01T14:27:57.317Z,-49
2022-10-01T14:29:03.604Z,-50
2022-10-01T14:30:09.871Z,-50
2022-10-01T14:31:16.138Z,-50
2022-10-01T14:32:22.417Z,-50
2022-10-01T14:33:28.679Z,-46
2022-10-01T14:34:34.968Z,-50
2022-10-01T14:35:41.227Z,-49
2022-10-01T14:36:47.525Z,-48
2022-10-01T14:37:53.778Z,-49
2022-10-01T14:39:00.071Z,-49
2022-10-01T14:40:06.327Z,-48
2022-10-01T14:41:11.603Z,-49
2022-10-01T14:42:17.881Z,-48
2022-10-01T14:43:24.148Z,-47
2022-10-01T14:44:30.439Z,-48
2022-10-01T14:45:36.760Z,-49
2022-10-01T14:46:42.978Z,-47
2022-10-01T14:47:49.302Z,-49
2022-10-01T14:48:55.505Z,-48
2022-10-01T14:50:01.778Z,-47
2022-10-01T14:51:08.050Z,-49
2022-10-01T14:52:14.323Z,-46
2022-10-01T14:53:20.590Z,-49
2022-10-01T14:54:26.895Z,-49
2022-10-01T14:55:32.185Z,-48
2022-10-01T14:56:38.433Z,-50
2022-10-01T14:57:44.722Z,-49
2022-10-01T14:58:50.983Z,-49
2022-10-01T14:59:57.245Z,-48
2022-10-01T15:01:02.536Z,-48
2022-10-01T15:02:07.830Z,-48
2022-10-01T15:03:14.127Z,-50
2022-10-01T15:04:19.402Z,-49
2022-10-01T15:05:24.700Z,-50
2022-10-01T15:06:30.966Z,-49
2022-10-01T15:07:37.251Z,-49
2022-10-01T15:08:43.512Z,-46
2022-10-01T15:09:49.825Z,-50
2022-10-01T15:10:56.074Z,-49